Time;durP1;ratioP1;P1;durP2;ratioP2;P2;SDS_P1;SDS_P2;PMS_P1;PMS_P2;Temp;Humidity;BMP_temperature;BMP_pressure;BME280_temperature;BME280_humidity;BME280_pressure;Samples;Min_cycle;Max_cycle;Signal;HPM_P1;HPM_P2
2023/09/02 00:02:06;;;;;;;6.25;3.47;;;24.40;93.00;;;;;;5009320;28;20472;-80
2023/09/02 00:04:32;;;;;;;5.65;3.40;;;24.40;93.10;;;;;;5010565;28;20034;-77
2023/09/02 00:06:57;;;;;;;6.72;3.30;;;24.40;93.10;;;;;;4999456;28;20054;-76
2023/09/02 00:09:23;;;;;;;5.65;3.20;;;24.40;93.10;;;;;;5008014;28;20026;-80
2023/09/02 00:11:49;;;;;;;6.18;3.33;;;24.40;93.10;;;;;;5013696;28;20030;-76
2023/09/02 00:14:14;;;;;;;4.93;3.08;;;24.30;93.10;;;;;;5002108;28;20061;-76
2023/09/02 00:16:40;;;;;;;4.00;3.28;;;24.40;93.20;;;;;;4999494;28;20031;-76
2023/09/02 00:19:06;;;;;;;7.75;3.70;;;24.40;93.20;;;;;;5005499;28;20552;-76
2023/09/02 00:21:33;;;;;;;4.80;3.53;;;24.30;93.20;;;;;;5018628;28;20614;-77
2023/09/02 00:24:02;;;;;;;5.28;3.33;;;24.30;93.20;;;;;;5007581;28;20088;-77
2023/09/02 00:26:31;;;;;;;6.28;3.42;;;24.30;93.20;;;;;;5008616;28;20042;-77
2023/09/02 00:28:57;;;;;;;5.28;3.78;;;24.30;93.20;;;;;;5008399;28;20029;-76
2023/09/02 00:31:22;;;;;;;5.30;2.88;;;24.30;93.30;;;;;;5013394;28;20112;-75
2023/09/02 00:33:48;;;;;;;7.25;2.90;;;24.30;93.30;;;;;;5010878;28;20445;-77
2023/09/02 00:36:14;;;;;;;4.90;3.17;;;24.30;93.30;;;;;;5012359;28;20030;-77
2023/09/02 00:38:40;;;;;;;5.03;3.33;;;24.20;93.30;;;;;;5011719;28;20026;-76
2023/09/02 00:41:11;;;;;;;7.63;2.90;;;24.20;93.40;;;;;;5008976;28;20070;-77
2023/09/02 00:43:37;;;;;;;4.18;2.65;;;24.20;93.40;;;;;;4992109;28;20030;-77
2023/09/02 00:46:04;;;;;;;7.95;3.17;;;24.20;93.40;;;;;;5008704;28;20498;-78
2023/09/02 00:48:30;;;;;;;7.53;3.58;;;24.20;93.50;;;;;;5008506;28;20113;-78
2023/09/02 00:50:56;;;;;;;3.90;2.67;;;24.20;93.40;;;;;;5010682;28;20554;-77
2023/09/02 00:53:24;;;;;;;5.78;3.30;;;24.20;93.40;;;;;;5004982;28;20037;-78
2023/09/02 00:55:51;;;;;;;7.72;2.92;;;24.20;93.40;;;;;;5011933;28;20110;-77
2023/09/02 00:58:17;;;;;;;4.72;3.40;;;24.20;93.40;;;;;;4997557;28;20030;-79
2023/09/02 01:00:45;;;;;;;4.30;3.30;;;24.20;93.50;;;;;;5010109;28;20118;-79
2023/09/02 01:03:11;;;;;;;6.22;2.95;;;24.20;93.50;;;;;;5010208;28;20123;-78
2023/09/02 01:05:37;;;;;;;3.45;2.53;;;24.20;93.50;;;;;;5010428;28;20073;-78
2023/09/02 01:08:05;;;;;;;4.93;3.38;;;24.20;93.60;;;;;;5008755;28;20045;-78
2023/09/02 01:10:36;;;;;;;4.38;3.20;;;24.10;93.60;;;;;;5000729;28;20117;-79
2023/09/02 01:13:03;;;;;;;4.05;3.20;;;24.10;93.50;;;;;;5008434;28;20041;-79
2023/09/02 01:15:30;;;;;;;5.18;3.20;;;24.10;93.50;;;;;;5012787;28;20019;-76
2023/09/02 01:17:56;;;;;;;4.72;2.92;;;24.10;93.60;;;;;;5012753;28;20041;-76
2023/09/02 01:20:27;;;;;;;5.00;3.17;;;24.10;93.60;;;;;;5013377;28;20029;-75
2023/09/02 01:22:55;;;;;;;4.20;2.88;;;24.10;93.60;;;;;;5013169;28;20041;-75
2023/09/02 01:25:45;;;;;;;5.93;3.35;;;24.10;93.60;;;;;;4991292;28;20040;-77
2023/09/02 01:28:18;;;;;;;3.97;2.97;;;24.10;93.70;;;;;;5000015;28;20392;-76
2023/09/02 01:30:48;;;;;;;5.47;3.35;;;24.10;93.70;;;;;;4994741;28;20046;-76
2023/09/02 01:33:16;;;;;;;5.97;3.00;;;24.10;93.60;;;;;;5010248;28;20029;-77
2023/09/02 01:35:43;;;;;;;9.43;3.60;;;24.10;93.60;;;;;;5009620;28;20030;-77
2023/09/02 01:38:10;;;;;;;5.97;3.10;;;24.00;93.60;;;;;;5008487;28;20045;-77
2023/09/02 01:40:38;;;;;;;7.97;3.03;;;24.10;93.70;;;;;;5001029;28;20022;-77
2023/09/02 01:43:05;;;;;;;6.28;3.17;;;24.10;93.60;;;;;;5000987;28;20118;-77
2023/09/02 01:45:34;;;;;;;6.47;3.45;;;24.10;93.60;;;;;;5009685;28;20489;-77
2023/09/02 01:48:01;;;;;;;5.78;3.60;;;24.10;93.60;;;;;;4988416;28;20096;-77
2023/09/02 01:50:30;;;;;;;5.68;3.50;;;24.10;93.60;;;;;;5012240;28;20057;-77
2023/09/02 01:52:57;;;;;;;5.03;3.75;;;24.10;93.60;;;;;;5002994;28;20023;-78
2023/09/02 01:55:23;;;;;;;7.75;4.53;;;24.00;93.60;;;;;;5008307;28;20030;-79
2023/09/02 01:57:49;;;;;;;6.40;4.85;;;24.00;93.50;;;;;;5001832;28;20549;-79
2023/09/02 02:00:15;;;;;;;8.82;5.30;;;24.00;93.50;;;;;;5010124;28;20118;-79
2023/09/02 02:02:44;;;;;;;10.43;5.45;;;24.00;93.50;;;;;;4994510;28;20041;-78
2023/09/02 02:05:14;;;;;;;7.65;5.10;;;24.00;93.80;;;;;;5000494;28;20060;-78
2023/09/02 02:07:44;;;;;;;7.60;4.78;;;24.00;93.60;;;;;;5002257;28;20042;-78
2023/09/02 02:10:16;;;;;;;6.72;4.68;;;24.00;93.60;;;;;;4991308;28;20034;-78
2023/09/02 02:12:42;;;;;;;8.13;5.78;;;24.00;93.60;;;;;;5012250;28;20022;-78
2023/09/02 02:15:11;;;;;;;6.70;5.22;;;24.00;93.60;;;;;;5016160;28;20060;-78
2023/09/02 02:17:38;;;;;;;9.10;6.03;;;24.00;93.60;;;;;;5002831;28;20460;-78
2023/09/02 02:20:04;;;;;;;9.60;5.85;;;23.90;93.60;;;;;;4993503;28;20045;-79
2023/09/02 02:22:30;;;;;;;9.25;6.25;;;23.90;93.60;;;;;;4993255;28;20080;-78
2023/09/02 02:24:56;;;;;;;8.20;6.10;;;23.90;93.50;;;;;;4997666;28;20034;-78
2023/09/02 02:27:22;;;;;;;9.43;6.28;;;23.90;93.50;;;;;;4999382;28;20038;-77
2023/09/02 02:29:48;;;;;;;6.95;6.13;;;23.90;93.60;;;;;;5006467;28;20029;-77
2023/09/02 02:32:13;;;;;;;10.05;6.47;;;23.80;93.50;;;;;;5004484;28;20034;-77
2023/09/02 02:34:39;;;;;;;8.13;5.68;;;23.90;93.60;;;;;;5010922;28;20494;-77
2023/09/02 02:37:05;;;;;;;8.00;5.47;;;23.80;93.60;;;;;;4994265;28;20044;-77
2023/09/02 02:39:30;;;;;;;7.72;5.70;;;23.80;93.70;;;;;;5011270;28;20382;-76
2023/09/02 02:41:56;;;;;;;11.18;6.63;;;23.80;93.70;;;;;;5009876;28;20041;-77
2023/09/02 02:44:22;;;;;;;6.88;5.63;;;23.80;93.70;;;;;;5012062;28;20040;-77
2023/09/02 02:46:47;;;;;;;7.60;5.88;;;23.80;93.70;;;;;;5007057;28;20038;-77
2023/09/02 02:49:13;;;;;;;8.13;5.95;;;23.80;93.70;;;;;;5010593;28;20018;-76
2023/09/02 02:51:39;;;;;;;10.07;6.25;;;23.80;93.70;;;;;;5007502;28;20383;-76
2023/09/02 02:54:04;;;;;;;8.90;6.32;;;23.70;93.70;;;;;;4992968;28;20538;-76
2023/09/02 02:56:30;;;;;;;9.57;7.03;;;23.80;93.80;;;;;;5006790;28;20371;-77
2023/09/02 02:58:56;;;;;;;8.80;7.05;;;23.70;93.70;;;;;;5009510;28;20114;-81
2023/09/02 03:01:22;;;;;;;11.15;7.05;;;23.70;93.70;;;;;;5014196;28;20474;-81
2023/09/02 03:06:24;;;;;;;7.63;6.80;;;23.70;93.70;;;;;;5040959;23;20061;-80
2023/09/02 03:08:49;;;;;;;8.57;6.70;;;23.60;93.60;;;;;;4990171;28;20429;-80
2023/09/02 03:11:15;;;;;;;8.93;7.10;;;23.60;93.60;;;;;;4992641;28;20366;-80
2023/09/02 03:13:41;;;;;;;6.63;5.85;;;23.60;93.60;;;;;;4995978;28;20069;-82
2023/09/02 03:16:07;;;;;;;9.85;6.50;;;23.60;93.60;;;;;;4998911;28;20026;-81
2023/09/02 03:18:32;;;;;;;9.07;6.22;;;23.60;93.70;;;;;;4997914;28;20026;-81
2023/09/02 03:21:03;;;;;;;10.73;7.18;;;23.60;93.60;;;;;;4996316;28;20101;-81
2023/09/02 03:23:29;;;;;;;9.10;7.85;;;23.50;93.60;;;;;;4996059;28;20106;-81
2023/09/02 03:25:55;;;;;;;16.85;13.52;;;23.40;93.70;;;;;;4994838;28;20430;-78
2023/09/02 03:28:20;;;;;;;16.15;13.85;;;23.20;94.00;;;;;;4994329;28;20027;-79
2023/09/02 03:30:46;;;;;;;8.70;7.43;;;23.00;94.40;;;;;;4995843;28;20114;-78
2023/09/02 03:33:14;;;;;;;8.32;7.13;;;22.90;94.40;;;;;;4995734;28;20030;-78
2023/09/02 03:35:40;;;;;;;8.20;7.40;;;22.90;94.50;;;;;;4995452;28;20501;-78
2023/09/02 03:38:06;;;;;;;10.70;9.02;;;22.80;94.50;;;;;;4994832;28;20038;-77
2023/09/02 03:40:33;;;;;;;14.85;11.27;;;22.80;94.60;;;;;;4996129;28;20466;-79
2023/09/02 03:42:59;;;;;;;8.82;7.38;;;22.80;94.80;;;;;;5011029;28;20034;-78
2023/09/02 03:45:24;;;;;;;9.73;8.10;;;22.70;94.80;;;;;;4977922;28;20257;-78
2023/09/02 03:47:50;;;;;;;11.13;8.93;;;22.60;94.90;;;;;;4995771;28;20042;-78
2023/09/02 03:50:26;;;;;;;11.70;8.73;;;22.60;94.90;;;;;;5000114;28;20033;-78
2023/09/02 03:52:52;;;;;;;8.23;6.95;;;22.60;95.10;;;;;;4996113;28;20062;-78
2023/09/02 03:55:18;;;;;;;10.10;6.45;;;22.60;95.10;;;;;;4995745;28;20027;-78
2023/09/02 03:57:43;;;;;;;9.02;7.35;;;22.50;95.10;;;;;;4995846;28;20039;-78
2023/09/02 04:00:10;;;;;;;9.88;7.90;;;22.50;95.40;;;;;;4995971;28;20026;-82
2023/09/02 04:02:35;;;;;;;14.93;9.73;;;22.50;95.50;;;;;;4995528;28;20050;-81
2023/09/02 04:05:03;;;;;;;7.80;6.40;;;22.40;95.50;;;;;;5003818;28;20046;-80
2023/09/02 04:07:29;;;;;;;11.52;9.30;;;22.40;95.50;;;;;;4986871;28;20034;-80
2023/09/02 04:09:56;;;;;;;17.15;8.75;;;22.40;95.70;;;;;;4995532;28;20118;-81
2023/09/02 04:12:22;;;;;;;13.77;10.50;;;22.30;95.80;;;;;;4994795;28;20030;-81
2023/09/02 04:14:48;;;;;;;9.85;7.70;;;22.30;95.90;;;;;;4996123;28;20473;-80
2023/09/02 04:17:14;;;;;;;10.13;7.80;;;22.30;95.80;;;;;;4995592;28;20418;-81
2023/09/02 04:19:39;;;;;;;11.30;7.93;;;22.30;95.60;;;;;;4977935;28;20533;-81
2023/09/02 04:22:05;;;;;;;8.93;7.70;;;22.40;95.60;;;;;;4994753;28;20530;-82
2023/09/02 04:24:31;;;;;;;7.63;6.57;;;22.50;95.60;;;;;;4994112;28;20444;-82
2023/09/02 04:26:57;;;;;;;9.70;7.20;;;22.50;95.50;;;;;;4971324;28;20180;-82
2023/09/02 04:29:23;;;;;;;8.32;7.47;;;22.60;95.40;;;;;;4994539;28;20471;-79
2023/09/02 04:31:48;;;;;;;11.18;7.85;;;22.60;95.30;;;;;;4977705;28;20045;-78
2023/09/02 04:34:14;;;;;;;7.82;7.03;;;22.70;95.20;;;;;;4994244;28;20026;-78
2023/09/02 04:36:40;;;;;;;8.60;6.97;;;22.70;95.10;;;;;;4991817;28;20065;-82
2023/09/02 04:39:06;;;;;;;9.25;7.00;;;22.70;95.00;;;;;;4997888;28;20406;-87
2023/09/02 04:41:32;;;;;;;10.23;7.63;;;22.70;95.00;;;;;;4977046;28;20356;-80
2023/09/02 04:43:58;;;;;;;8.27;7.38;;;22.80;95.00;;;;;;4993112;28;20041;-80
2023/09/02 04:46:24;;;;;;;10.95;7.70;;;22.80;95.00;;;;;;4994234;28;20034;-79
2023/09/02 04:48:50;;;;;;;8.68;7.75;;;22.80;95.00;;;;;;4993923;28;20019;-80
2023/09/02 04:51:16;;;;;;;12.52;7.65;;;22.80;95.00;;;;;;4993960;28;20038;-80
2023/09/02 04:53:42;;;;;;;10.10;8.02;;;22.80;95.00;;;;;;4993452;28;20505;-80
2023/09/02 04:56:10;;;;;;;10.70;8.82;;;22.80;94.90;;;;;;4991101;28;20022;-80
2023/09/02 04:58:36;;;;;;;9.80;7.88;;;22.80;94.90;;;;;;4987412;28;20480;-80
2023/09/02 05:01:09;;;;;;;10.40;8.10;;;22.80;94.90;;;;;;4992460;28;20030;-80
2023/09/02 05:03:35;;;;;;;8.63;7.70;;;22.80;94.90;;;;;;4989643;28;20045;-80
2023/09/02 05:06:01;;;;;;;11.77;8.57;;;22.80;94.90;;;;;;4988880;28;20042;-79
2023/09/02 05:08:31;;;;;;;10.75;8.52;;;22.80;94.90;;;;;;4991465;28;20026;-80
2023/09/02 05:10:57;;;;;;;8.75;7.85;;;22.80;95.00;;;;;;4996675;28;20410;-82
2023/09/02 05:13:23;;;;;;;10.35;7.95;;;22.80;94.90;;;;;;4993461;28;20030;-86
2023/09/02 05:15:53;;;;;;;14.40;9.48;;;22.80;95.10;;;;;;5009475;28;20026;-84
2023/09/02 05:18:19;;;;;;;13.05;8.15;;;22.80;94.90;;;;;;4993164;28;20037;-82
2023/09/02 05:20:44;;;;;;;11.35;8.82;;;22.80;94.90;;;;;;4989369;28;20038;-82
2023/09/02 05:23:12;;;;;;;13.52;8.20;;;22.80;94.90;;;;;;4992239;28;20026;-82
2023/09/02 05:25:38;;;;;;;12.35;10.32;;;22.80;95.00;;;;;;4991885;28;20084;-83
2023/09/02 05:28:05;;;;;;;11.65;8.55;;;22.80;95.10;;;;;;4993455;28;20030;-81
2023/09/02 05:30:31;;;;;;;11.32;8.35;;;22.80;95.00;;;;;;4994174;28;20038;-82
2023/09/02 05:32:57;;;;;;;10.65;8.20;;;22.80;95.00;;;;;;4994400;28;20018;-82
2023/09/02 05:35:23;;;;;;;12.55;9.27;;;22.80;95.00;;;;;;4998365;28;20045;-82
2023/09/02 05:37:49;;;;;;;12.90;9.20;;;22.80;95.00;;;;;;4992876;28;20027;-81
2023/09/02 05:40:15;;;;;;;9.02;7.95;;;22.90;95.00;;;;;;4993726;28;20053;-82
2023/09/02 05:42:40;;;;;;;11.77;8.38;;;22.90;95.00;;;;;;4994028;28;20057;-81
2023/09/02 05:45:06;;;;;;;11.18;8.13;;;22.80;95.00;;;;;;4992323;28;20030;-82
2023/09/02 05:47:32;;;;;;;9.32;8.38;;;22.90;95.00;;;;;;4993331;28;20041;-82
2023/09/02 05:49:58;;;;;;;9.48;7.93;;;22.90;95.10;;;;;;4994889;28;20026;-83
2023/09/02 05:52:23;;;;;;;12.05;8.38;;;22.90;95.00;;;;;;4994167;28;20018;-83
2023/09/02 05:54:49;;;;;;;13.70;8.32;;;22.90;95.00;;;;;;5012723;28;20025;-82
2023/09/02 05:57:15;;;;;;;11.45;8.45;;;22.90;95.10;;;;;;5010962;28;20026;-82
2023/09/02 05:59:40;;;;;;;10.07;7.93;;;22.90;95.10;;;;;;5012531;28;20069;-83
2023/09/02 06:02:06;;;;;;;11.88;9.40;;;23.00;95.00;;;;;;5005156;28;20038;-83
2023/09/02 06:04:32;;;;;;;8.82;7.93;;;23.00;95.00;;;;;;4993292;28;20042;-83
2023/09/02 06:06:57;;;;;;;9.35;8.38;;;23.00;95.00;;;;;;4994980;28;20039;-83
2023/09/02 06:09:26;;;;;;;10.30;8.98;;;23.00;95.10;;;;;;4994845;28;20026;-83
2023/09/02 06:11:52;;;;;;;9.65;8.65;;;23.00;95.10;;;;;;4993354;28;20014;-82
2023/09/02 06:14:18;;;;;;;17.70;14.15;;;23.00;95.00;;;;;;4976473;28;20422;-82
2023/09/02 06:16:43;;;;;;;16.48;11.80;;;22.90;95.10;;;;;;4993758;28;20027;-82
2023/09/02 06:19:09;;;;;;;12.20;10.07;;;22.80;95.30;;;;;;4995737;28;20489;-82
2023/09/02 06:21:35;;;;;;;11.35;9.50;;;22.80;95.40;;;;;;5005366;28;20022;-82
2023/09/02 06:24:00;;;;;;;11.65;8.52;;;22.70;95.40;;;;;;4993166;28;20038;-82
2023/09/02 06:26:26;;;;;;;13.05;9.20;;;22.80;95.40;;;;;;5003418;28;20042;-82
2023/09/02 06:28:52;;;;;;;16.48;11.73;;;22.90;95.40;;;;;;4997630;28;20030;-82
2023/09/02 06:31:18;;;;;;;10.27;9.13;;;22.90;95.40;;;;;;4975509;28;20060;-82
2023/09/02 06:33:43;;;;;;;20.67;12.25;;;22.90;95.50;;;;;;4980695;28;20029;-81
2023/09/02 06:36:16;;;;;;;9.88;7.90;;;22.90;95.60;;;;;;4997153;28;20026;-81
2023/09/02 06:38:42;;;;;;;15.15;10.57;;;22.80;95.70;;;;;;4995178;28;20030;-82
2023/09/02 06:41:14;;;;;;;17.02;10.23;;;22.80;95.80;;;;;;4996398;28;20026;-82
2023/09/02 06:43:41;;;;;;;7.93;6.63;;;22.80;96.00;;;;;;4995494;28;20037;-78
2023/09/02 06:46:17;;;;;;;14.07;10.05;;;22.90;95.80;;;;;;4993350;28;20379;-77
2023/09/02 06:48:44;;;;;;;11.63;8.43;;;22.90;96.00;;;;;;4996360;28;20042;-77
2023/09/02 06:51:10;;;;;;;14.38;7.82;;;22.90;96.00;;;;;;4990126;28;20394;-78
2023/09/02 06:53:35;;;;;;;13.32;9.38;;;22.90;96.00;;;;;;4988339;28;20034;-78
2023/09/02 06:56:05;;;;;;;8.68;6.30;;;22.90;95.90;;;;;;4996408;28;20112;-78
2023/09/02 06:58:30;;;;;;;7.77;5.47;;;23.00;95.70;;;;;;5015177;28;20030;-78
2023/09/02 07:00:56;;;;;;;9.95;7.38;;;23.00;95.60;;;;;;5016332;28;20040;-78
2023/09/02 07:03:21;;;;;;;8.00;5.28;;;23.10;95.50;;;;;;5007529;28;20477;-78
2023/09/02 07:05:47;;;;;;;14.85;8.57;;;23.10;95.40;;;;;;4999244;28;20122;-78
2023/09/02 07:08:13;;;;;;;10.65;6.95;;;23.20;95.30;;;;;;4990863;28;20034;-79
2023/09/02 07:10:39;;;;;;;8.65;5.47;;;23.20;95.20;;;;;;4997939;28;20099;-79
2023/09/02 07:13:04;;;;;;;9.10;8.10;;;23.30;95.30;;;;;;5007813;28;20130;-79
2023/09/02 07:15:30;;;;;;;11.20;7.32;;;23.30;95.40;;;;;;4997046;28;20434;-78
2023/09/02 07:17:55;;;;;;;9.18;4.85;;;23.40;95.00;;;;;;5001900;28;20409;-78
2023/09/02 07:20:21;;;;;;;8.55;6.47;;;23.40;95.00;;;;;;5011975;28;20037;-79
2023/09/02 07:22:47;;;;;;;9.13;7.05;;;23.40;94.90;;;;;;5016369;28;20034;-78
2023/09/02 07:25:12;;;;;;;7.30;4.55;;;23.40;94.90;;;;;;5013817;28;20036;-79
2023/09/02 07:27:38;;;;;;;6.53;4.20;;;23.50;94.90;;;;;;5003666;28;20053;-78
2023/09/02 07:30:04;;;;;;;8.00;5.00;;;23.60;94.80;;;;;;5014017;28;20423;-79
2023/09/02 07:32:30;;;;;;;10.82;4.60;;;23.70;94.70;;;;;;4998171;28;20545;-79
2023/09/02 07:34:56;;;;;;;6.10;4.53;;;23.80;94.50;;;;;;4995921;28;20114;-78
2023/09/02 07:37:21;;;;;;;6.43;3.67;;;23.90;94.30;;;;;;4994581;28;20041;-77
2023/09/02 07:39:47;;;;;;;6.45;4.60;;;24.00;94.30;;;;;;4995717;28;20049;-76
2023/09/02 07:42:13;;;;;;;7.72;4.10;;;24.10;93.90;;;;;;4981758;28;20139;-78
2023/09/02 07:44:38;;;;;;;11.90;5.82;;;24.20;93.80;;;;;;4987087;28;20037;-78
2023/09/02 07:47:04;;;;;;;6.93;3.97;;;24.30;93.70;;;;;;4976092;28;20371;-78
2023/09/02 07:49:30;;;;;;;4.15;3.35;;;24.30;93.50;;;;;;4993169;28;20125;-79
2023/09/02 07:51:55;;;;;;;5.93;4.20;;;24.40;93.50;;;;;;4987077;28;20395;-77
2023/09/02 07:54:21;;;;;;;6.68;3.42;;;24.50;93.50;;;;;;4995331;28;20050;-77
2023/09/02 07:56:47;;;;;;;6.75;3.38;;;24.60;93.00;;;;;;4990545;28;20030;-77
2023/09/02 07:59:12;;;;;;;6.00;3.50;;;24.70;92.70;;;;;;4988683;28;20034;-77
2023/09/02 08:01:38;;;;;;;9.43;5.97;;;24.70;92.80;;;;;;4995743;28;20479;-77
2023/09/02 08:04:04;;;;;;;9.55;4.32;;;24.70;92.70;;;;;;4978974;28;20035;-77
2023/09/02 08:06:30;;;;;;;6.45;3.28;;;24.80;92.70;;;;;;4993919;28;20479;-77
2023/09/02 08:08:56;;;;;;;5.43;3.40;;;24.90;92.80;;;;;;4995438;28;20045;-77
2023/09/02 08:11:21;;;;;;;4.43;2.90;;;25.00;92.50;;;;;;4995327;28;20038;-77
2023/09/02 08:13:47;;;;;;;6.40;2.50;;;25.10;92.60;;;;;;4995113;28;20044;-79
2023/09/02 08:16:13;;;;;;;7.63;3.08;;;25.30;92.60;;;;;;4976959;28;20520;-79
2023/09/02 08:18:39;;;;;;;4.55;2.60;;;25.40;92.60;;;;;;4992438;28;20029;-79
2023/09/02 08:21:09;;;;;;;6.00;2.55;;;25.50;92.20;;;;;;4977564;28;20038;-81
2023/09/02 08:23:35;;;;;;;4.40;2.55;;;25.60;92.10;;;;;;4994328;28;20026;-81
2023/09/02 08:26:15;;;;;;;5.30;2.55;;;25.80;92.10;;;;;;4996517;28;20042;-81
2023/09/02 08:28:42;;;;;;;4.55;2.17;;;25.90;91.80;;;;;;5000010;28;20118;-82
2023/09/02 08:31:11;;;;;;;5.65;2.70;;;26.00;91.50;;;;;;4995093;28;20030;-81
2023/09/02 08:33:37;;;;;;;6.88;2.17;;;26.10;91.40;;;;;;4994818;28;20022;-81
2023/09/02 08:36:03;;;;;;;6.80;2.28;;;26.20;91.20;;;;;;4994322;28;20069;-81
2023/09/02 08:38:28;;;;;;;2.97;1.92;;;26.20;91.00;;;;;;4993903;28;20054;-83
2023/09/02 08:40:54;;;;;;;8.93;2.10;;;26.30;90.90;;;;;;4994768;28;20485;-82
2023/09/02 08:43:21;;;;;;;6.28;2.70;;;26.40;90.70;;;;;;4992895;28;20034;-82
2023/09/02 08:45:49;;;;;;;5.80;3.00;;;26.50;90.50;;;;;;4994826;28;20030;-82
2023/09/02 08:48:22;;;;;;;6.18;2.30;;;26.60;90.60;;;;;;4992714;28;20023;-81
2023/09/02 08:50:48;;;;;;;6.85;2.67;;;26.70;90.50;;;;;;4994707;28;20085;-81
2023/09/02 08:53:15;;;;;;;6.07;3.13;;;26.80;90.30;;;;;;4996710;28;20093;-82
2023/09/02 08:55:41;;;;;;;2.53;1.73;;;26.90;89.90;;;;;;5005616;28;20037;-82
2023/09/02 08:58:08;;;;;;;4.47;2.35;;;27.00;90.10;;;;;;4996818;28;20034;-80
2023/09/02 09:00:35;;;;;;;5.35;2.30;;;27.10;89.70;;;;;;4994478;28;20034;-79
2023/09/02 09:03:03;;;;;;;3.05;2.10;;;27.20;89.40;;;;;;4976976;28;20026;-80
2023/09/02 09:05:29;;;;;;;2.95;1.50;;;27.20;88.20;;;;;;4994247;28;20057;-80
2023/09/02 09:07:56;;;;;;;5.05;1.50;;;27.30;87.60;;;;;;4993501;28;20239;-83
2023/09/02 09:10:23;;;;;;;3.22;1.70;;;27.40;87.80;;;;;;4975907;28;20034;-82
2023/09/02 09:12:51;;;;;;;4.05;2.00;;;27.40;87.10;;;;;;4994414;28;20177;-80
2023/09/02 09:15:19;;;;;;;4.75;2.00;;;27.50;86.60;;;;;;5004815;28;20476;-79
2023/09/02 09:17:45;;;;;;;3.22;2.03;;;27.60;86.10;;;;;;4992746;28;20050;-80
2023/09/02 09:20:13;;;;;;;4.45;2.20;;;27.80;85.40;;;;;;4993856;28;20062;-80
2023/09/02 09:22:39;;;;;;;4.30;2.28;;;27.80;84.90;;;;;;4993543;28;20076;-83
2023/09/02 09:25:06;;;;;;;3.97;1.70;;;27.90;84.50;;;;;;4993279;28;20039;-80
2023/09/02 09:27:31;;;;;;;4.45;1.52;;;28.00;83.80;;;;;;4991621;28;20500;-78
2023/09/02 09:29:58;;;;;;;6.03;1.83;;;28.10;83.20;;;;;;4993416;28;20076;-77
2023/09/02 09:32:24;;;;;;;3.40;1.70;;;28.10;83.00;;;;;;4992080;28;20050;-78
2023/09/02 09:34:50;;;;;;;3.83;1.35;;;28.20;83.40;;;;;;4993454;28;20054;-77
2023/09/02 09:37:16;;;;;;;3.55;1.67;;;28.30;82.70;;;;;;4993160;28;20031;-77
2023/09/02 09:39:43;;;;;;;4.93;2.17;;;28.40;82.90;;;;;;4993222;28;20038;-76
2023/09/02 09:42:12;;;;;;;2.80;1.58;;;28.50;82.30;;;;;;4992328;28;20506;-75
2023/09/02 09:44:55;;;;;;;5.75;1.73;;;28.70;82.00;;;;;;4976491;28;20026;-76
2023/09/02 09:47:26;;;;;;;3.63;1.67;;;28.80;80.70;;;;;;4992574;28;20097;-76
2023/09/02 09:49:52;;;;;;;2.95;1.70;;;28.80;79.30;;;;;;4993166;28;20041;-75
2023/09/02 09:52:21;;;;;;;2.85;1.33;;;28.90;80.60;;;;;;4992408;28;20104;-76
2023/09/02 09:54:52;;;;;;;2.73;1.37;;;29.00;80.50;;;;;;4999685;28;20026;-76
2023/09/02 09:57:29;;;;;;;3.05;1.50;;;29.10;80.40;;;;;;5003100;28;20045;-76
2023/09/02 09:59:56;;;;;;;4.32;1.70;;;29.30;79.50;;;;;;4992880;28;20129;-76
2023/09/02 10:02:22;;;;;;;2.97;1.35;;;29.30;79.40;;;;;;4993874;28;20038;-76
2023/09/02 10:04:54;;;;;;;3.78;1.20;;;29.40;79.50;;;;;;4993824;28;20117;-76
2023/09/02 10:07:26;;;;;;;3.65;1.88;;;29.50;78.60;;;;;;4992637;28;20043;-76
2023/09/02 10:09:56;;;;;;;3.80;1.85;;;29.60;79.00;;;;;;4993341;28;20026;-76
2023/09/02 10:12:22;;;;;;;1.98;1.52;;;29.70;78.50;;;;;;4993503;28;20039;-76
2023/09/02 10:14:49;;;;;;;5.50;1.50;;;29.80;78.40;;;;;;4994117;28;20026;-76
2023/09/02 10:17:16;;;;;;;1.92;1.50;;;29.80;78.00;;;;;;4992900;28;20102;-75
2023/09/02 10:19:44;;;;;;;5.93;1.20;;;29.90;77.60;;;;;;4991666;28;20076;-76
2023/09/02 10:22:19;;;;;;;3.17;1.30;;;30.00;78.00;;;;;;4995707;28;20045;-76
2023/09/02 10:24:51;;;;;;;3.85;1.50;;;30.10;77.90;;;;;;4997267;28;20101;-76
2023/09/02 10:27:22;;;;;;;2.45;1.48;;;30.20;76.80;;;;;;4980879;28;20053;-83
2023/09/02 10:29:55;;;;;;;1.95;1.20;;;30.30;76.40;;;;;;4997441;28;20027;-83
2023/09/02 10:32:26;;;;;;;3.40;1.52;;;30.40;76.60;;;;;;4996364;28;20473;-83
2023/09/02 10:35:13;;;;;;;2.67;1.33;;;30.50;75.90;;;;;;4989419;28;20027;-82
2023/09/02 10:37:49;;;;;;;3.28;1.30;;;30.60;75.40;;;;;;4973912;28;20474;-76
2023/09/02 10:40:20;;;;;;;3.70;1.25;;;30.60;76.00;;;;;;4998679;28;20068;-77
2023/09/02 10:42:47;;;;;;;3.63;1.60;;;30.80;75.90;;;;;;4980105;28;20049;-76
2023/09/02 10:45:13;;;;;;;3.30;1.50;;;31.00;75.60;;;;;;4979780;28;20409;-76
2023/09/02 10:47:39;;;;;;;2.00;1.52;;;31.00;75.30;;;;;;4995978;28;20042;-77
2023/09/02 10:50:08;;;;;;;2.58;1.40;;;31.20;75.40;;;;;;4996448;28;20022;-77
2023/09/02 10:52:34;;;;;;;5.93;1.95;;;31.30;75.30;;;;;;4997616;28;20034;-77
2023/09/02 10:55:02;;;;;;;3.38;1.75;;;31.50;74.00;;;;;;5005454;28;20024;-77
2023/09/02 10:57:31;;;;;;;3.30;1.42;;;31.50;74.20;;;;;;5012647;28;20384;-77
2023/09/02 11:00:15;;;;;;;3.35;1.83;;;31.70;74.10;;;;;;4995430;28;20074;-77
2023/09/02 11:02:42;;;;;;;3.58;1.70;;;31.90;73.60;;;;;;4997267;28;20364;-79
2023/09/02 11:05:09;;;;;;;3.00;1.50;;;32.00;73.20;;;;;;4996661;28;20050;-77
2023/09/02 11:07:35;;;;;;;5.05;1.80;;;32.00;73.00;;;;;;4977832;28;20549;-76
2023/09/02 11:10:02;;;;;;;3.95;1.60;;;32.10;73.00;;;;;;4995134;28;20041;-80
2023/09/02 11:12:29;;;;;;;2.47;1.30;;;32.20;72.30;;;;;;4994937;28;20026;-78
2023/09/02 11:15:06;;;;;;;4.30;1.67;;;32.30;72.20;;;;;;5002050;28;20034;-77
2023/09/02 11:17:33;;;;;;;4.53;1.95;;;32.40;71.30;;;;;;4995318;28;20534;-80
2023/09/02 11:20:03;;;;;;;7.43;1.42;;;32.50;71.70;;;;;;4978897;28;20057;-78
2023/09/02 11:22:49;;;;;;;4.25;1.35;;;32.60;71.10;;;;;;4977829;28;20030;-78
2023/09/02 11:25:30;;;;;;;1.70;1.15;;;32.70;70.20;;;;;;4990587;28;20042;-77
2023/09/02 11:27:58;;;;;;;1.83;1.10;;;32.80;69.60;;;;;;4986637;28;20041;-77
2023/09/02 11:30:25;;;;;;;8.15;1.63;;;32.90;69.50;;;;;;4988996;28;20117;-76
2023/09/02 11:32:52;;;;;;;6.57;1.25;;;33.00;70.00;;;;;;4989253;28;20448;-77
2023/09/02 11:35:29;;;;;;;3.00;1.33;;;33.20;69.90;;;;;;4990891;28;20029;-77
2023/09/02 11:37:55;;;;;;;3.47;1.00;;;33.30;69.00;;;;;;4987540;28;20029;-77
2023/09/02 11:40:24;;;;;;;2.63;1.15;;;33.50;69.50;;;;;;4991683;28;20078;-76
2023/09/02 11:43:04;;;;;;;3.13;1.20;;;33.70;69.20;;;;;;4989052;28;20031;-82
2023/09/02 11:45:33;;;;;;;6.07;1.33;;;33.90;67.20;;;;;;4993473;28;20165;-82
2023/09/02 11:47:59;;;;;;;3.07;1.40;;;34.00;68.20;;;;;;4986533;28;20486;-77
2023/09/02 11:50:25;;;;;;;6.15;1.67;;;34.20;68.00;;;;;;4985994;28;20031;-77
2023/09/02 11:52:55;;;;;;;2.88;1.60;;;34.40;67.60;;;;;;4974352;28;20027;-77
2023/09/02 11:55:32;;;;;;;4.95;1.30;;;34.50;66.80;;;;;;4991631;28;20027;-77
2023/09/02 11:58:14;;;;;;;1.63;1.13;;;34.70;66.60;;;;;;4977511;28;20034;-83
2023/09/02 12:00:42;;;;;;;3.40;1.17;;;34.90;66.30;;;;;;5000199;28;20490;-77
2023/09/02 12:03:09;;;;;;;2.13;1.03;;;35.00;66.60;;;;;;4994045;28;20104;-82
2023/09/02 12:05:54;;;;;;;1.50;0.95;;;35.10;66.60;;;;;;4986546;28;20077;-83
2023/09/02 12:08:19;;;;;;;4.40;1.58;;;35.30;65.80;;;;;;4992760;28;20044;-82
2023/09/02 12:10:46;;;;;;;3.35;1.48;;;35.40;65.50;;;;;;4977639;28;20105;-82
2023/09/02 12:13:16;;;;;;;2.33;1.25;;;35.50;65.60;;;;;;4982212;28;20089;-82
2023/09/02 12:15:47;;;;;;;2.55;1.45;;;35.60;64.70;;;;;;4976330;28;20069;-83
2023/09/02 12:18:13;;;;;;;3.55;1.33;;;35.80;63.70;;;;;;4985580;28;20122;-83
2023/09/02 12:20:39;;;;;;;4.72;1.20;;;35.80;63.80;;;;;;4976773;28;20497;-82
2023/09/02 12:23:05;;;;;;;4.72;1.30;;;35.90;64.20;;;;;;4994381;28;20061;-82
2023/09/02 12:25:33;;;;;;;2.33;1.33;;;35.90;63.50;;;;;;4989785;28;20106;-83
2023/09/02 12:28:13;;;;;;;4.10;1.40;;;35.90;62.60;;;;;;4994322;28;20033;-82
2023/09/02 12:30:40;;;;;;;2.15;1.13;;;36.00;62.70;;;;;;4985849;28;20030;-82
2023/09/02 12:33:06;;;;;;;5.82;1.38;;;36.00;62.30;;;;;;4989508;28;20077;-83
2023/09/02 12:35:32;;;;;;;3.60;1.55;;;36.10;62.00;;;;;;4976316;28;20027;-82
2023/09/02 12:38:06;;;;;;;2.95;1.23;;;36.10;61.70;;;;;;4991181;28;20039;-83
2023/09/02 12:40:33;;;;;;;2.97;1.40;;;36.00;60.70;;;;;;4977023;28;20489;-83
2023/09/02 12:43:00;;;;;;;3.38;1.33;;;36.10;61.20;;;;;;4988153;28;20053;-83
2023/09/02 12:45:46;;;;;;;3.03;1.25;;;36.00;61.20;;;;;;4993343;28;20483;-83
2023/09/02 12:48:13;;;;;;;3.40;1.30;;;36.00;60.30;;;;;;4984885;28;20044;-82